createdAt,value
2022-09-06T00:04:15.490Z,0
2022-09-06T00:09:10.799Z,0
2022-09-06T00:14:11.284Z,0
2022-09-06T00:24:16.463Z,0
2022-09-06T00:29:11.505Z,0
2022-09-06T00:34:11.292Z,0
2022-09-06T00:39:10.874Z,0
2022-09-06T00:44:11.032Z,0
2022-09-06T00:49:11.842Z,0
2022-09-06T00:54:10.808Z,0
2022-09-06T00:59:10.789Z,0
2022-09-06T01:04:10.790Z,0
2022-09-06T01:09:10.893Z,0
2022-09-06T01:14:10.851Z,0
2022-09-06T01:19:11.793Z,0
2022-09-06T01:24:10.824Z,0
2022-09-06T01:29:11.804Z,0
2022-09-06T01:34:10.953Z,0
2022-09-06T01:39:10.806Z,0
2022-09-06T01:44:10.777Z,0
2022-09-06T01:49:10.850Z,0
2022-09-06T01:54:10.819Z,0
2022-09-06T01:59:10.825Z,0
2022-09-06T02:04:10.825Z,0
2022-09-06T02:09:10.826Z,0
2022-09-06T02:14:10.859Z,0
2022-09-06T02:19:10.802Z,0
2022-09-06T02:24:10.832Z,0
2022-09-06T02:29:10.821Z,0
2022-09-06T02:34:10.897Z,0
2022-09-06T02:39:10.800Z,0
2022-09-06T02:44:10.841Z,0
2022-09-06T02:49:10.830Z,0
2022-09-06T02:54:10.825Z,0
2022-09-06T02:59:10.816Z,0
2022-09-06T03:04:11.046Z,0
2022-09-06T03:09:10.854Z,0
2022-09-06T03:14:10.851Z,0
2022-09-06T03:19:10.870Z,0
2022-09-06T03:24:10.839Z,0
2022-09-06T03:29:10.852Z,0
2022-09-06T03:34:11.892Z,0
2022-09-06T03:39:10.854Z,0
2022-09-06T03:44:10.906Z,0
2022-09-06T03:49:10.831Z,0
2022-09-06T03:54:10.932Z,0
2022-09-06T03:59:10.884Z,0
2022-09-06T04:04:10.880Z,0
2022-09-06T04:09:10.849Z,0
2022-09-06T04:14:10.874Z,0
2022-09-06T04:19:10.857Z,0
2022-09-06T04:24:10.904Z,0
2022-09-06T04:29:10.938Z,0
2022-09-06T04:34:10.888Z,0
2022-09-06T04:39:10.974Z,0
2022-09-06T04:44:10.856Z,0
2022-09-06T04:49:10.909Z,265
2022-09-06T04:54:10.893Z,265
2022-09-06T04:59:11.196Z,267
2022-09-06T05:04:10.881Z,266
2022-09-06T05:09:14.974Z,267
2022-09-06T05:14:11.867Z,270
2022-09-06T05:19:10.886Z,269
2022-09-06T05:24:10.899Z,271
2022-09-06T05:29:10.877Z,273
2022-09-06T05:34:10.874Z,275
2022-09-06T05:39:11.030Z,277
2022-09-06T05:44:10.891Z,279
2022-09-06T05:49:10.901Z,281
2022-09-06T05:54:10.880Z,288
2022-09-06T05:59:11.962Z,295
2022-09-06T06:04:11.123Z,308
2022-09-06T06:09:10.889Z,299
2022-09-06T06:14:11.035Z,292
2022-09-06T06:19:10.910Z,288
2022-09-06T06:24:10.886Z,276
2022-09-06T06:29:10.961Z,276
2022-09-06T06:34:10.925Z,281
2022-09-06T06:39:10.893Z,294
2022-09-06T06:44:10.959Z,317
2022-09-06T06:49:10.930Z,319
2022-09-06T06:54:10.941Z,327
2022-09-06T06:59:10.931Z,324
2022-09-06T07:04:10.929Z,322
2022-09-06T07:09:10.960Z,313
2022-09-06T07:14:10.949Z,314
2022-09-06T07:24:10.917Z,363
2022-09-06T07:29:10.956Z,335
2022-09-06T07:34:11.008Z,334
2022-09-06T07:39:10.954Z,350
2022-09-06T07:44:10.968Z,377
2022-09-06T07:49:10.962Z,369
2022-09-06T07:54:30.195Z,372
2022-09-06T07:59:11.178Z,382
2022-09-06T08:04:11.009Z,401
2022-09-06T08:09:10.957Z,407
2022-09-06T08:14:11.232Z,406
2022-09-06T08:19:11.988Z,456
2022-09-06T08:24:10.964Z,1039
2022-09-06T08:29:11.036Z,1185
2022-09-06T08:34:10.973Z,1615
2022-09-06T08:39:10.979Z,1329
2022-09-06T08:49:10.953Z,1037
2022-09-06T08:54:12.066Z,1177
2022-09-06T08:59:10.998Z,951
2022-09-06T09:04:10.988Z,950
2022-09-06T09:09:11.091Z,1235
2022-09-06T09:14:10.968Z,1153
2022-09-06T09:19:12.468Z,1296
2022-09-06T09:24:10.991Z,1593
2022-09-06T09:29:10.953Z,1148
2022-09-06T09:34:10.976Z,1553
2022-09-06T09:39:11.004Z,1216
2022-09-06T09:44:11.003Z,1561
2022-09-06T09:49:10.991Z,1673
2022-09-06T09:54:10.998Z,1730
2022-09-06T09:59:11.003Z,1682
2022-09-06T10:04:43.384Z,1373
2022-09-06T10:09:14.115Z,851
2022-09-06T10:14:11.049Z,1589
2022-09-06T10:19:11.070Z,1728
2022-09-06T10:24:28.689Z,1555
2022-09-06T10:29:11.593Z,1477
2022-09-06T10:34:11.001Z,1508
2022-09-06T10:39:11.226Z,723
2022-09-06T10:44:11.037Z,1025
2022-09-06T10:49:11.010Z,1433
2022-09-06T10:54:11.034Z,1516
2022-09-06T10:59:37.947Z,1118
2022-09-06T11:04:14.006Z,1401
2022-09-06T11:09:11.082Z,1510
2022-09-06T11:14:10.980Z,463
2022-09-06T11:19:11.015Z,417
2022-09-06T11:24:10.995Z,377
2022-09-06T11:29:11.086Z,354
2022-09-06T11:34:11.041Z,348
2022-09-06T11:39:11.084Z,345
2022-09-06T11:44:11.089Z,340
2022-09-06T11:49:11.103Z,365
2022-09-06T11:54:11.092Z,365
2022-09-06T11:59:11.130Z,356
2022-09-06T12:04:11.198Z,350
2022-09-06T12:09:11.178Z,335
2022-09-06T12:14:11.129Z,345
2022-09-06T12:19:11.620Z,394
2022-09-06T12:24:11.089Z,339
2022-09-06T12:29:11.072Z,331
2022-09-06T12:34:11.036Z,344
2022-09-06T12:39:11.048Z,347
2022-09-06T12:44:11.051Z,335
2022-09-06T12:49:11.032Z,341
2022-09-06T12:54:11.050Z,339
2022-09-06T12:59:11.075Z,325
2022-09-06T13:04:11.036Z,341
2022-09-06T13:09:11.082Z,339
2022-09-06T13:14:14.556Z,314
2022-09-06T13:19:11.046Z,340
2022-09-06T13:24:11.492Z,364
2022-09-06T13:29:11.043Z,325
2022-09-06T13:34:11.058Z,324
2022-09-06T13:39:11.038Z,304
2022-09-06T13:44:11.071Z,304
2022-09-06T13:49:11.210Z,321
2022-09-06T13:54:11.074Z,294
2022-09-06T13:59:11.126Z,307
2022-09-06T14:04:11.084Z,310
2022-09-06T14:09:11.158Z,313
2022-09-06T14:14:11.132Z,303
2022-09-06T14:19:11.123Z,282
2022-09-06T14:24:11.086Z,291
2022-09-06T14:29:11.121Z,312
2022-09-06T14:34:11.097Z,300
2022-09-06T14:39:11.065Z,307
2022-09-06T14:44:11.070Z,308
2022-09-06T14:49:11.117Z,307
2022-09-06T14:54:11.061Z,303
2022-09-06T14:59:11.075Z,295
2022-09-06T15:04:11.105Z,293
2022-09-06T15:09:11.132Z,300
2022-09-06T15:14:11.089Z,303
2022-09-06T15:19:11.134Z,297
2022-09-06T15:24:14.175Z,290
2022-09-06T15:29:11.514Z,302
2022-09-06T15:34:11.347Z,303
2022-09-06T15:39:11.159Z,294
2022-09-06T15:44:11.096Z,280
2022-09-06T15:49:11.219Z,279
2022-09-06T15:54:11.114Z,297
2022-09-06T15:59:11.097Z,293
2022-09-06T16:04:11.112Z,296
2022-09-06T16:09:11.126Z,288
2022-09-06T16:14:11.232Z,284
2022-09-06T16:19:11.233Z,278
2022-09-06T16:24:11.142Z,283
2022-09-06T16:29:11.144Z,276
2022-09-06T16:34:11.482Z,278
2022-09-06T16:39:11.186Z,278
2022-09-06T16:44:11.113Z,278
2022-09-06T16:49:15.936Z,275
2022-09-06T16:54:11.150Z,272
2022-09-06T16:59:11.115Z,268
2022-09-06T17:04:11.113Z,267
2022-09-06T17:09:11.137Z,267
2022-09-06T17:14:11.104Z,266
2022-09-06T17:19:11.128Z,266
2022-09-06T17:24:11.588Z,265
2022-09-06T17:29:11.374Z,0
2022-09-06T17:34:11.181Z,0
2022-09-06T17:39:11.158Z,0
2022-09-06T17:44:11.195Z,0
2022-09-06T17:49:11.164Z,0
2022-09-06T17:54:11.168Z,0
2022-09-06T17:59:11.133Z,0
2022-09-06T18:04:11.141Z,0
2022-09-06T18:09:11.221Z,0
2022-09-06T18:14:11.168Z,0
2022-09-06T18:19:11.155Z,0
2022-09-06T18:24:11.204Z,0
2022-09-06T18:29:11.207Z,0
2022-09-06T18:34:11.199Z,0
2022-09-06T18:39:12.175Z,0
2022-09-06T18:44:11.166Z,0
2022-09-06T18:49:11.430Z,0
2022-09-06T18:54:12.214Z,0
2022-09-06T18:59:11.187Z,0
2022-09-06T19:04:11.452Z,0
2022-09-06T19:09:11.191Z,0
2022-09-06T19:14:11.237Z,0
2022-09-06T19:19:11.193Z,0
2022-09-06T19:24:11.201Z,0
2022-09-06T19:29:11.143Z,0
2022-09-06T19:34:11.213Z,0
2022-09-06T19:39:11.168Z,0
2022-09-06T19:44:11.239Z,0
2022-09-06T19:49:11.230Z,0
2022-09-06T19:54:11.194Z,0
2022-09-06T19:59:11.295Z,0
2022-09-06T20:04:11.224Z,0
2022-09-06T20:09:11.475Z,0
2022-09-06T20:14:11.236Z,0
2022-09-06T20:19:11.246Z,0
2022-09-06T20:24:11.173Z,0
2022-09-06T20:29:11.234Z,0
2022-09-06T20:34:11.219Z,0
2022-09-06T20:39:12.563Z,0
2022-09-06T20:44:11.188Z,0
2022-09-06T20:49:11.222Z,0
2022-09-06T20:54:11.217Z,0
2022-09-06T20:59:11.250Z,0
2022-09-06T21:04:11.230Z,0
2022-09-06T21:09:11.261Z,0
2022-09-06T21:14:11.267Z,0
2022-09-06T21:19:11.507Z,0
2022-09-06T21:24:11.207Z,0
2022-09-06T21:29:11.207Z,0
2022-09-06T21:34:16.746Z,0
2022-09-06T21:39:11.785Z,0
2022-09-06T21:44:11.210Z,0
2022-09-06T21:49:11.239Z,0
2022-09-06T21:54:11.311Z,0
2022-09-06T21:59:11.296Z,0
2022-09-06T22:04:11.308Z,0
2022-09-06T22:09:11.545Z,0
2022-09-06T22:14:11.275Z,0
2022-09-06T22:19:11.282Z,0
2022-09-06T22:24:12.259Z,0
2022-09-06T22:29:11.256Z,0
2022-09-06T22:34:11.231Z,0
2022-09-06T22:39:11.254Z,0
2022-09-06T22:44:11.278Z,0
2022-09-06T22:49:11.268Z,0
2022-09-06T22:54:11.227Z,0
2022-09-06T22:59:11.269Z,0
2022-09-06T23:04:11.356Z,0
2022-09-06T23:09:11.274Z,0
2022-09-06T23:14:11.268Z,0
2022-09-06T23:19:11.289Z,0
2022-09-06T23:24:11.286Z,0
2022-09-06T23:29:12.248Z,0
2022-09-06T23:34:11.796Z,0
2022-09-06T23:39:11.316Z,0
2022-09-06T23:44:11.280Z,0
2022-09-06T23:49:11.338Z,0
2022-09-06T23:54:11.539Z,0
2022-09-06T23:59:11.338Z,0
